Huvudsida
METAR-TAF:

METAR-TAF

Flygplatser :

Helsingfors-Vanda flygplats

Helsingfors, Finland

latitud: 60-19N, longitud: 024-58E, höjd: 51 m

Aktuellt väderrapport

Denna rapport gjordes för 23 minuter sedan, klockan 14:20 UTC
Vind 15 kt från syd/sydväst
Temperatur 9°C
Fuktighet 87%
Tryck 1034 hPa
Sikt 10 km eller mer
Få moln på en höjd av 1000 ft
Brutna moln på en höjd av 4000 ft

METAR: EFHK 161420Z 21015KT 9999 FEW010 BKN040 09/07 Q1034 NOSIG

Tid: 16:43 (14:43 UTC)

Väderprognos

Denna rapport gjordes för 3 timmar och 20 minuter sedan, klockan 11:23 UTC
Prognos gäller från 16 kl. 12 UTC till 17 kl. 12 UTC
Vind 13 kt från väst/sydväst
Sikt 10 km eller mer
Brutna moln på en höjd av 1300 ft
Blir
från 16 kl. 12 UTC till 16 kl. 14 UTC
Spridda moln på en höjd av 1500 ft
Temporärt
från 16 kl. 23 UTC till 17 kl. 08 UTC
Brutna moln på en höjd av 1300 ft

TAF: EFHK 161123Z 1612/1712 24013KT 9999 BKN013 BECMG 1612/1614 SCT015 TEMPO 1623/1708 BKN013

Aktuella väderrapporter och prognoser från 4000 flygplatser (METAR- och TAF-rapporter).

De tillgängliga stationerna syns som gula och röda prickar på kartan.

För musen över prickarna för att se namnen på stationerna.

Klicka sedan för att få väderrapporter och prognoser.

För att ändra kartan: Klicka på de gröna knapparna med ett svart kors på för att zooma in; den gröna knappen med ett streck på för att zooma ut; eller på de gröna pilarna för angränsande kartor.


METAR-TAF: